Current | Radar | Forecast | Satellite
Updated: 9:55 PM CDT on March 28, 2017
Observed at Middlesboro, Kentucky
Temperature 57°F
Humidity 84%
Dew Point 52°F
Wind North at 0 mph
Pressure 30.08 in (Steady)
Conditions Mostly Cloudy
Visibility 10.0 miles
UV 0 out of 16
Clouds Mostly Cloudy (BKN) : 5000 ft
Yesterday's Maximum 75°F
Yesterday's Minimum 45°F
Yesterday's Heating Degree Days 5
Sunrise7:26 AM EDT
Sunset7:54 PM EDT
Moon Rise7:59 AM EDT
Moon Set8:45 PM EDT
Moon PhaseMoon Phase
New Moon
Raw METARMETAR K1A6 290255Z AUTO 00000KT 10SM BKN050 14/11 A3008 RMK AO2 T01370110

Ingram, KY

Current Radar

Radar Map
Zoom into radar image
Zoom into animated radar image


Scientific forecaster discussion (NWS)

Units: English | Metric

Find the Weather for any City, State or Zipcode, or Country:

U.S. State List | Severe Weather | Tropical Storms | Ski Conditions
United States | Canada | Central America | South America | Asia | Europe | Australia | Africa | Islands

Weather Underground

© Copyright 2017
The Weather Company, LLC